Aérodrome :







RETROUVEZ-NOUS SUR...

 
LOGIN :

S'inscrire | Disclaimer

   EN    FR    IT 

 









Légende :    VFR   VFR Marginal   IFR   IFR Intensif   IFR Très Intensif
Visi : 
Plafond : 
>= 8 km
>= 3000ft
5 à 8 km
1000 à 3000 ft
1500m à 5 km
500 à 1000 ft
800 à 1500m
200 à 500 ft
< 800m
< 200 ft
Symboles :   Orages  Brouillard  Fortes neiges  Fortes précipitations  Vent > 20 kt






- Altitude de l'aérodrome : 333 ft


KWVL - Waterville Robert Lafleur

DERNIER METAR :
  • 111856Z AUTO VRB04KT 10SM -RA OVC033 01/M06 A3015 RMK AO2 RAB52 SLP241 P0000 T00111061 FZRANO

METARs EXPIRÉS :
  • 111756Z AUTO 05007KT 10SM OVC035 01/M07 A3015 RMK AO2 SLP243 T00111067 10028 20011 50001 FZRANO
  • 111656Z AUTO 02008KT 10SM OVC037 01/M06 A3016 RMK AO2 SLP245 T00111056 FZRANO

TAF N/A



MET'MAP, la Météo Aéronautique d'un coup d'oeil ! - Copyright ORBIFLY Décembre 2007 - Disclaimer

ORBIFLY MET'MAP TEAM :

Programmation & Développement : Alexandra Zaïnal
Conception & Développement : Baudouin d'Aumeries
Co-Programmation & Développement : Marc-Olivier Méhu
Soutien technique & logistique : Manuel Goepfert

Contact : metmap@orbifly.com




SOURCES & CREDITS :

   NOAA